Time;durP1;ratioP1;P1;durP2;ratioP2;P2;SDS_P1;SDS_P2;PMS_P1;PMS_P2;Temp;Humidity;BMP_temperature;BMP_pressure;BME280_temperature;BME280_humidity;BME280_pressure;Samples;Min_cycle;Max_cycle;Signal;HPM_P1;HPM_P2
2022/01/13 00:00:54;;;;;;;54.53;23.77;;;5.10;99.90;;;;;;5034462;28;20177;-71
2022/01/13 00:03:20;;;;;;;52.70;23.33;;;5.10;99.90;;;;;;5034241;28;20178;-72
2022/01/13 00:05:45;;;;;;;56.53;23.33;;;5.20;99.90;;;;;;5032988;28;20247;-71
2022/01/13 00:08:11;;;;;;;55.80;25.07;;;5.10;99.90;;;;;;5033917;28;20224;-72
2022/01/13 00:10:36;;;;;;;57.40;24.00;;;5.10;99.90;;;;;;5034190;28;20264;-72
2022/01/13 00:13:06;;;;;;;52.87;23.00;;;5.00;99.90;;;;;;5032894;28;20213;-72
2022/01/13 00:18:36;;;;;;;60.90;24.87;;;4.90;99.90;;;;;;5031641;28;20209;-72
2022/01/13 00:21:15;;;;;;;54.10;23.10;;;4.80;99.90;;;;;;5031623;28;20190;-71
2022/01/13 00:23:47;;;;;;;65.33;25.63;;;5.00;99.90;;;;;;5031907;28;20190;-71
2022/01/13 00:26:24;;;;;;;54.97;23.73;;;5.00;99.90;;;;;;5031596;28;20328;-71
2022/01/13 00:28:52;;;;;;;54.77;26.13;;;4.80;99.90;;;;;;5031435;28;20185;-71
2022/01/13 00:31:23;;;;;;;56.63;25.40;;;4.80;99.90;;;;;;5031646;28;20170;-71
2022/01/13 00:33:54;;;;;;;59.60;26.00;;;4.60;99.90;;;;;;5031754;28;20265;-71
2022/01/13 00:36:21;;;;;;;59.47;26.10;;;4.60;99.90;;;;;;5031317;28;20261;-72
2022/01/13 00:38:46;;;;;;;56.13;24.27;;;4.60;99.90;;;;;;5031463;28;20212;-71
2022/01/13 00:41:12;;;;;;;66.57;25.93;;;4.60;99.90;;;;;;5031715;28;20182;-71
2022/01/13 00:43:40;;;;;;;59.73;26.10;;;4.60;99.90;;;;;;5031397;28;20252;-71
2022/01/13 00:46:07;;;;;;;66.67;26.67;;;4.60;99.90;;;;;;5031281;28;20181;-71
2022/01/13 00:48:33;;;;;;;60.33;26.57;;;4.70;99.90;;;;;;5031129;28;20178;-71
2022/01/13 00:50:59;;;;;;;55.63;25.63;;;4.70;99.90;;;;;;5031207;28;20193;-71
2022/01/13 00:53:25;;;;;;;50.67;23.33;;;4.70;99.90;;;;;;5031410;28;20181;-71
2022/01/13 00:55:59;;;;;;;60.13;24.90;;;4.50;99.90;;;;;;5032753;28;20186;-71
2022/01/13 00:58:27;;;;;;;62.13;25.27;;;4.30;99.90;;;;;;5033195;28;20292;-70
2022/01/13 01:00:54;;;;;;;61.83;26.17;;;4.20;99.90;;;;;;5033202;28;20676;-71
2022/01/13 01:03:19;;;;;;;56.73;25.77;;;4.20;99.90;;;;;;5032870;28;20165;-71
2022/01/13 01:05:45;;;;;;;65.40;26.73;;;4.30;99.90;;;;;;5033423;28;20541;-71
2022/01/13 01:08:11;;;;;;;55.97;25.67;;;4.40;99.90;;;;;;5033201;28;20169;-71
2022/01/13 01:10:38;;;;;;;62.00;26.43;;;4.40;99.90;;;;;;5033315;28;20529;-71
2022/01/13 01:13:11;;;;;;;61.77;26.27;;;4.30;99.90;;;;;;5033213;28;20275;-72
2022/01/13 01:15:38;;;;;;;65.43;26.90;;;4.30;99.90;;;;;;5033119;28;20188;-71
2022/01/13 01:18:13;;;;;;;71.27;27.13;;;4.30;99.90;;;;;;5032328;28;20228;-71
2022/01/13 01:20:49;;;;;;;62.30;27.67;;;4.30;99.90;;;;;;5033416;28;20177;-71
2022/01/13 01:23:19;;;;;;;59.60;25.87;;;4.30;99.90;;;;;;5033068;28;20178;-72
2022/01/13 01:25:58;;;;;;;61.30;26.57;;;4.50;99.90;;;;;;5031617;28;20596;-72
2022/01/13 01:28:33;;;;;;;60.27;26.37;;;4.40;99.90;;;;;;5033139;28;20185;-72
2022/01/13 01:30:58;;;;;;;60.93;25.50;;;4.50;99.90;;;;;;5033003;28;20161;-72
2022/01/13 01:33:24;;;;;;;65.90;27.70;;;4.50;99.90;;;;;;5032648;28;20181;-70
2022/01/13 01:35:50;;;;;;;67.90;28.27;;;4.60;99.90;;;;;;5032712;28;20186;-71
2022/01/13 01:38:15;;;;;;;72.20;27.77;;;4.50;99.90;;;;;;5032315;28;20205;-71
2022/01/13 01:40:41;;;;;;;62.00;26.33;;;4.50;99.90;;;;;;5032517;28;20272;-71
2022/01/13 01:43:07;;;;;;;61.33;27.50;;;4.50;99.90;;;;;;5033033;28;20181;-71
2022/01/13 01:45:42;;;;;;;65.97;27.90;;;4.50;99.90;;;;;;5032818;28;20590;-71
2022/01/13 01:48:07;;;;;;;58.40;25.93;;;4.70;99.90;;;;;;5032285;28;20177;-71
2022/01/13 01:50:36;;;;;;;62.73;26.63;;;4.70;99.90;;;;;;5032686;28;20247;-71
2022/01/13 01:53:03;;;;;;;62.77;27.97;;;4.60;99.90;;;;;;5032802;28;20633;-71
2022/01/13 01:55:29;;;;;;;64.40;27.27;;;4.70;99.90;;;;;;5032544;28;20189;-71
2022/01/13 01:57:56;;;;;;;62.73;28.67;;;4.70;99.90;;;;;;5032542;28;20170;-73
2022/01/13 02:00:26;;;;;;;72.83;29.00;;;4.80;99.90;;;;;;5032433;28;20205;-71
2022/01/13 02:02:51;;;;;;;76.27;30.50;;;4.80;99.90;;;;;;5032063;28;20166;-72
2022/01/13 02:05:17;;;;;;;67.87;28.00;;;4.80;99.90;;;;;;5032468;28;20174;-71
2022/01/13 02:07:43;;;;;;;70.00;29.40;;;4.60;99.90;;;;;;5032465;28;20237;-71
2022/01/13 02:10:09;;;;;;;69.10;28.67;;;4.70;99.90;;;;;;5032339;28;20173;-70
2022/01/13 02:12:43;;;;;;;69.90;30.50;;;4.90;99.90;;;;;;5032595;28;20174;-70
2022/01/13 02:17:39;;;;;;;63.60;28.80;;;4.60;99.90;;;;;;5032255;28;20315;-71
2022/01/13 02:20:08;;;;;;;73.63;30.40;;;4.70;99.90;;;;;;5032425;28;20214;-71
2022/01/13 02:22:33;;;;;;;73.13;31.63;;;4.70;99.90;;;;;;5032496;28;20186;-71
2022/01/13 02:24:59;;;;;;;73.37;30.60;;;4.50;99.90;;;;;;5031974;28;20290;-70
2022/01/13 02:27:25;;;;;;;70.40;30.60;;;4.40;99.90;;;;;;5032549;28;20193;-71
2022/01/13 02:29:51;;;;;;;68.07;30.80;;;4.40;99.90;;;;;;5034665;28;20174;-70
2022/01/13 02:32:17;;;;;;;73.30;31.17;;;4.30;99.90;;;;;;5035826;28;20661;-70
2022/01/13 02:34:43;;;;;;;70.00;31.23;;;4.30;99.90;;;;;;5035887;28;20174;-71
2022/01/13 02:37:09;;;;;;;76.17;30.57;;;4.40;99.90;;;;;;5035986;28;20626;-71
2022/01/13 02:39:35;;;;;;;80.00;31.43;;;4.30;99.90;;;;;;5034543;28;20218;-71
2022/01/13 02:42:03;;;;;;;72.53;31.57;;;4.20;99.90;;;;;;5035922;28;20177;-71
2022/01/13 02:44:30;;;;;;;77.93;32.23;;;4.20;99.90;;;;;;5035471;28;20173;-71
2022/01/13 02:47:09;;;;;;;80.37;32.00;;;4.20;99.90;;;;;;5035535;28;20186;-71
2022/01/13 02:49:35;;;;;;;77.20;32.07;;;4.20;99.90;;;;;;5034355;28;20238;-71
2022/01/13 02:52:02;;;;;;;68.03;31.20;;;4.20;99.90;;;;;;5035743;28;20186;-70
2022/01/13 02:54:28;;;;;;;76.33;34.20;;;4.20;99.90;;;;;;5035547;28;20198;-70
2022/01/13 02:56:53;;;;;;;75.27;32.33;;;4.20;99.90;;;;;;5035652;28;20199;-70
2022/01/13 02:59:19;;;;;;;73.70;31.27;;;4.30;99.90;;;;;;5034984;28;20213;-71
2022/01/13 03:01:45;;;;;;;68.47;30.43;;;4.30;99.90;;;;;;5035486;28;20170;-71
2022/01/13 03:04:10;;;;;;;66.77;28.83;;;4.30;99.90;;;;;;5035500;28;20170;-71
2022/01/13 03:06:39;;;;;;;67.43;28.80;;;4.30;99.90;;;;;;5035488;28;20576;-70
2022/01/13 03:09:09;;;;;;;64.93;28.27;;;4.20;99.90;;;;;;5035183;28;20177;-70
2022/01/13 03:11:38;;;;;;;71.70;28.00;;;4.20;99.90;;;;;;5035189;28;20169;-71
2022/01/13 03:14:10;;;;;;;64.17;27.37;;;4.10;99.90;;;;;;5034934;28;20170;-71
2022/01/13 03:16:36;;;;;;;68.17;27.97;;;4.00;99.90;;;;;;5035387;28;20205;-70
2022/01/13 03:19:02;;;;;;;70.87;27.57;;;4.00;99.90;;;;;;5034937;28;20683;-71
2022/01/13 03:21:28;;;;;;;64.37;28.37;;;4.10;99.90;;;;;;5035130;28;20570;-70
2022/01/13 03:23:53;;;;;;;70.57;28.53;;;4.00;99.90;;;;;;5034927;28;20224;-71
2022/01/13 03:26:23;;;;;;;73.47;28.03;;;3.80;99.90;;;;;;5034712;28;20248;-70
2022/01/13 03:28:51;;;;;;;66.83;27.63;;;3.70;99.90;;;;;;5034571;28;20208;-71
2022/01/13 03:31:21;;;;;;;70.30;28.70;;;3.70;99.90;;;;;;5034850;28;20167;-71
2022/01/13 03:33:48;;;;;;;74.87;29.03;;;3.60;99.90;;;;;;5034880;28;20183;-70
2022/01/13 03:36:14;;;;;;;69.00;28.53;;;3.50;99.90;;;;;;5034894;28;20185;-70
2022/01/13 03:38:40;;;;;;;78.23;30.53;;;3.50;99.90;;;;;;5034455;28;20209;-71
2022/01/13 03:41:06;;;;;;;75.77;31.00;;;3.60;99.90;;;;;;5033296;28;20173;-70
2022/01/13 03:43:32;;;;;;;77.17;30.43;;;3.70;99.90;;;;;;5034214;28;20227;-70
2022/01/13 03:45:58;;;;;;;71.50;29.50;;;3.70;99.90;;;;;;5034538;28;20182;-70
2022/01/13 03:48:24;;;;;;;81.27;30.47;;;3.80;99.90;;;;;;5034524;28;20185;-70
2022/01/13 03:50:49;;;;;;;79.17;31.20;;;3.70;99.90;;;;;;5034571;28;20201;-70
2022/01/13 03:53:27;;;;;;;79.20;31.30;;;3.80;99.90;;;;;;5034513;28;20181;-70
2022/01/13 03:56:22;;;;;;;80.83;30.83;;;3.70;99.90;;;;;;5034371;28;20188;-71
2022/01/13 03:59:07;;;;;;;78.60;29.53;;;3.70;99.90;;;;;;5031607;28;20205;-71
2022/01/13 04:01:55;;;;;;;81.57;30.13;;;3.60;99.90;;;;;;5032317;28;20305;-71
2022/01/13 04:04:21;;;;;;;71.07;29.90;;;3.60;99.90;;;;;;5032240;28;20301;-70
2022/01/13 04:06:47;;;;;;;83.87;31.17;;;3.50;99.90;;;;;;5032257;28;20178;-70
2022/01/13 04:09:33;;;;;;;82.93;33.10;;;3.50;99.90;;;;;;5031581;28;20190;-71
2022/01/13 04:12:04;;;;;;;77.57;31.23;;;3.70;99.90;;;;;;5031631;28;20257;-71
2022/01/13 04:14:45;;;;;;;79.93;31.30;;;3.90;99.90;;;;;;5031821;28;20173;-69
2022/01/13 04:17:16;;;;;;;78.80;30.87;;;3.90;99.90;;;;;;5031903;28;20184;-70
2022/01/13 04:19:43;;;;;;;77.97;30.33;;;3.90;99.90;;;;;;5031681;28;20293;-71
2022/01/13 04:22:10;;;;;;;75.90;32.13;;;3.80;99.90;;;;;;5031670;28;20178;-70
2022/01/13 04:24:38;;;;;;;82.23;31.30;;;3.70;99.90;;;;;;5030840;28;20248;-70
2022/01/13 04:27:04;;;;;;;88.13;31.27;;;3.90;99.90;;;;;;5011559;28;20191;-71
2022/01/13 04:29:35;;;;;;;73.47;31.40;;;4.10;99.90;;;;;;5011399;28;20191;-71
2022/01/13 04:32:01;;;;;;;75.57;30.10;;;4.10;99.90;;;;;;5012115;28;20178;-70
2022/01/13 04:34:27;;;;;;;78.60;31.17;;;4.00;99.90;;;;;;5011528;28;20174;-70
2022/01/13 04:36:58;;;;;;;80.43;32.27;;;4.00;99.90;;;;;;4995973;28;20187;-70
2022/01/13 04:39:24;;;;;;;78.93;30.77;;;3.80;99.90;;;;;;4993695;28;20734;-70
2022/01/13 04:41:52;;;;;;;76.30;32.97;;;3.70;99.90;;;;;;4993435;28;20647;-71
2022/01/13 04:44:19;;;;;;;82.10;30.07;;;3.70;99.90;;;;;;4992977;28;20171;-70
2022/01/13 04:46:46;;;;;;;84.00;32.10;;;3.70;99.90;;;;;;4992467;28;20175;-71
2022/01/13 04:49:13;;;;;;;72.20;29.80;;;3.70;99.90;;;;;;4993931;28;20206;-70
2022/01/13 04:51:40;;;;;;;71.80;28.73;;;3.70;99.90;;;;;;4993397;28;20175;-69
2022/01/13 04:54:06;;;;;;;81.50;29.03;;;3.50;99.90;;;;;;4993388;28;20218;-70
2022/01/13 04:56:44;;;;;;;75.50;28.80;;;3.40;99.90;;;;;;4993155;28;20631;-70
2022/01/13 04:59:11;;;;;;;73.07;28.93;;;3.40;99.90;;;;;;4993686;28;20630;-70
2022/01/13 05:01:38;;;;;;;77.87;29.80;;;3.30;99.90;;;;;;4992670;28;20175;-70
2022/01/13 05:04:04;;;;;;;85.50;32.00;;;3.30;99.90;;;;;;4993636;28;20171;-70
2022/01/13 05:06:30;;;;;;;80.40;30.33;;;3.30;99.90;;;;;;4993684;28;20171;-71
2022/01/13 05:08:56;;;;;;;89.70;33.17;;;3.40;99.90;;;;;;4993304;28;20198;-70
2022/01/13 05:11:22;;;;;;;86.73;32.33;;;3.30;99.90;;;;;;4992995;28;20174;-70
2022/01/13 05:13:48;;;;;;;94.87;33.07;;;3.50;99.90;;;;;;4993413;28;20182;-70
2022/01/13 05:16:36;;;;;;;85.20;30.17;;;3.50;99.90;;;;;;4993592;28;20209;-71
2022/01/13 05:21:46;;;;;;;82.63;29.67;;;3.30;99.90;;;;;;4993249;28;20171;-71
2022/01/13 05:24:12;;;;;;;81.30;29.07;;;3.40;99.90;;;;;;4992628;28;20245;-70
2022/01/13 05:26:38;;;;;;;93.60;31.40;;;3.20;99.90;;;;;;5025604;28;20221;-70
2022/01/13 05:29:04;;;;;;;79.33;29.97;;;3.20;99.90;;;;;;5032562;28;20652;-70
2022/01/13 05:31:30;;;;;;;90.37;31.77;;;3.20;99.90;;;;;;5032626;28;20177;-70
2022/01/13 05:33:55;;;;;;;94.57;32.73;;;3.40;99.90;;;;;;5032750;28;20166;-71
2022/01/13 05:36:21;;;;;;;82.37;30.23;;;3.50;99.90;;;;;;5032321;28;20629;-70
2022/01/13 05:38:47;;;;;;;88.70;32.63;;;3.50;99.90;;;;;;5032121;28;20206;-70
2022/01/13 05:41:13;;;;;;;86.40;32.27;;;3.60;99.90;;;;;;5032312;28;20170;-69
2022/01/13 05:43:39;;;;;;;93.00;31.33;;;3.60;99.90;;;;;;5032286;28;20170;-70
2022/01/13 05:46:05;;;;;;;77.27;30.40;;;3.40;99.90;;;;;;5032385;28;20225;-70
2022/01/13 05:48:31;;;;;;;86.50;31.87;;;3.40;99.90;;;;;;5031998;28;20173;-70
2022/01/13 05:50:58;;;;;;;75.93;26.47;;;3.50;99.90;;;;;;5032262;28;20193;-70
2022/01/13 05:53:24;;;;;;;76.80;27.80;;;3.40;99.90;;;;;;5031486;28;20170;-70
2022/01/13 05:55:49;;;;;;;86.27;29.73;;;3.20;99.90;;;;;;5032161;28;20236;-71
2022/01/13 05:58:15;;;;;;;78.03;28.73;;;3.10;99.90;;;;;;5032210;28;20171;-71
2022/01/13 06:00:41;;;;;;;82.80;30.20;;;3.10;99.90;;;;;;5032500;28;20185;-71
2022/01/13 06:03:06;;;;;;;74.53;28.87;;;3.10;99.90;;;;;;5032166;28;20193;-70
2022/01/13 06:05:33;;;;;;;82.53;28.77;;;3.20;99.90;;;;;;5035690;28;20224;-71
2022/01/13 06:07:59;;;;;;;75.40;28.53;;;3.20;99.90;;;;;;5035322;28;20261;-70
2022/01/13 06:10:25;;;;;;;77.50;28.53;;;3.00;99.90;;;;;;5035600;28;20174;-70
2022/01/13 06:12:52;;;;;;;81.47;30.47;;;3.00;99.90;;;;;;5035156;28;20239;-70
2022/01/13 06:15:21;;;;;;;80.57;29.67;;;2.90;99.90;;;;;;5035756;28;20178;-70
2022/01/13 06:17:49;;;;;;;78.33;30.37;;;3.00;99.90;;;;;;5035272;28;20224;-71
2022/01/13 06:20:15;;;;;;;72.30;29.13;;;3.10;99.90;;;;;;5034742;28;20340;-70
2022/01/13 06:22:43;;;;;;;84.20;30.23;;;3.30;99.90;;;;;;5033966;28;20177;-71
2022/01/13 06:25:10;;;;;;;73.73;28.83;;;3.40;99.90;;;;;;5034766;28;20221;-70
2022/01/13 06:27:35;;;;;;;68.63;28.50;;;3.30;99.90;;;;;;5035467;28;20189;-71
2022/01/13 06:30:04;;;;;;;82.93;31.37;;;3.20;99.90;;;;;;5034899;28;20619;-71
2022/01/13 06:32:30;;;;;;;83.93;29.43;;;3.10;99.90;;;;;;5035253;28;20174;-71
2022/01/13 06:34:55;;;;;;;81.63;30.90;;;3.30;99.90;;;;;;5035138;28;20189;-71
2022/01/13 06:37:21;;;;;;;77.60;31.17;;;3.40;99.90;;;;;;5034596;28;20242;-71
2022/01/13 06:39:47;;;;;;;76.77;32.13;;;3.50;99.90;;;;;;5034682;28;20221;-71
2022/01/13 06:42:13;;;;;;;76.77;31.03;;;3.50;99.90;;;;;;5034493;28;20174;-70
2022/01/13 06:44:39;;;;;;;72.80;30.07;;;3.60;99.90;;;;;;5034707;28;20699;-71
2022/01/13 06:47:05;;;;;;;75.10;31.50;;;3.70;99.90;;;;;;5034769;28;20174;-70
2022/01/13 06:49:31;;;;;;;76.53;29.40;;;3.70;99.90;;;;;;5034371;28;20193;-71
2022/01/13 06:51:57;;;;;;;74.40;29.97;;;3.50;99.90;;;;;;5033707;28;20174;-70
2022/01/13 06:54:23;;;;;;;75.67;29.10;;;3.40;99.90;;;;;;5034031;28;20193;-70
2022/01/13 06:56:50;;;;;;;66.20;28.90;;;3.40;99.90;;;;;;5034809;28;20672;-71
2022/01/13 06:59:16;;;;;;;69.27;28.77;;;3.30;99.90;;;;;;5033902;28;20262;-70
2022/01/13 07:01:43;;;;;;;64.57;28.03;;;3.30;99.90;;;;;;5034977;28;20225;-70
2022/01/13 07:04:09;;;;;;;66.67;26.80;;;3.40;99.90;;;;;;5034502;28;20649;-70
2022/01/13 07:06:36;;;;;;;64.20;28.57;;;3.40;99.90;;;;;;5034142;28;20170;-71
2022/01/13 07:09:05;;;;;;;62.30;26.50;;;3.40;99.90;;;;;;5033740;28;20269;-70
2022/01/13 07:11:31;;;;;;;62.37;26.43;;;3.40;99.90;;;;;;5032716;28;20210;-70
2022/01/13 07:13:57;;;;;;;61.93;26.30;;;3.50;99.90;;;;;;5032946;28;20524;-70
2022/01/13 07:16:22;;;;;;;64.80;27.47;;;3.50;99.90;;;;;;5033799;28;20216;-70
2022/01/13 07:18:48;;;;;;;66.50;28.10;;;3.60;99.90;;;;;;5033218;28;20233;-71
2022/01/13 07:21:16;;;;;;;61.57;27.67;;;3.60;99.90;;;;;;5033795;28;20170;-72
2022/01/13 07:23:42;;;;;;;66.07;28.77;;;3.70;99.90;;;;;;5033762;28;20198;-71
2022/01/13 07:26:08;;;;;;;73.23;28.87;;;3.60;99.90;;;;;;5033889;28;20235;-71
2022/01/13 07:28:36;;;;;;;65.37;27.80;;;3.60;99.90;;;;;;5031941;28;20265;-70
2022/01/13 07:31:02;;;;;;;63.57;26.83;;;3.60;99.90;;;;;;5033725;28;20182;-70
2022/01/13 07:33:28;;;;;;;58.77;26.27;;;3.60;99.90;;;;;;5031836;28;20232;-70
2022/01/13 07:35:54;;;;;;;59.97;25.97;;;3.50;99.90;;;;;;5034106;28;20177;-71
2022/01/13 07:38:20;;;;;;;64.77;28.20;;;3.30;99.90;;;;;;5044928;28;20188;-70
2022/01/13 07:40:46;;;;;;;61.30;26.97;;;3.10;99.90;;;;;;5052434;28;20204;-70
2022/01/13 07:43:12;;;;;;;69.07;28.10;;;3.10;99.90;;;;;;5034003;28;20186;-70
2022/01/13 07:45:38;;;;;;;60.37;26.97;;;3.00;99.90;;;;;;5034455;28;20182;-70
2022/01/13 07:48:05;;;;;;;67.10;28.37;;;3.10;99.90;;;;;;5035885;28;20162;-70
2022/01/13 07:50:31;;;;;;;66.70;28.50;;;3.10;99.90;;;;;;5050314;28;20272;-69
2022/01/13 07:52:59;;;;;;;72.77;30.00;;;3.10;99.90;;;;;;5053178;28;20184;-70
2022/01/13 07:55:25;;;;;;;60.30;28.40;;;3.00;99.90;;;;;;5033404;28;20177;-70
2022/01/13 07:57:51;;;;;;;74.57;29.77;;;3.10;99.90;;;;;;5033829;28;20648;-70
2022/01/13 08:00:17;;;;;;;68.30;29.00;;;3.20;99.90;;;;;;5039434;28;20201;-70
2022/01/13 08:02:42;;;;;;;64.77;27.43;;;3.20;99.90;;;;;;5052925;28;20177;-70
2022/01/13 08:05:08;;;;;;;64.40;28.87;;;3.40;99.90;;;;;;5052829;28;20177;-70
2022/01/13 08:07:37;;;;;;;69.90;26.77;;;3.30;99.90;;;;;;5052931;28;20200;-70
2022/01/13 08:10:06;;;;;;;65.03;29.23;;;3.20;99.90;;;;;;5050970;28;20181;-69
2022/01/13 08:12:32;;;;;;;73.60;30.73;;;3.20;99.90;;;;;;5052957;28;20191;-71
2022/01/13 08:14:57;;;;;;;71.77;30.57;;;3.10;99.90;;;;;;5052831;28;20256;-70
2022/01/13 08:20:08;;;;;;;67.50;29.87;;;3.10;99.90;;;;;;5050503;28;20207;-70
2022/01/13 08:22:35;;;;;;;65.77;29.33;;;3.20;99.90;;;;;;5053156;28;20226;-70
2022/01/13 08:25:00;;;;;;;63.73;28.80;;;3.40;99.90;;;;;;5052907;28;20300;-70
2022/01/13 08:27:26;;;;;;;63.47;28.63;;;3.50;99.90;;;;;;5051730;28;20264;-69
2022/01/13 08:29:52;;;;;;;56.87;27.90;;;3.50;99.90;;;;;;5050555;28;20177;-70
2022/01/13 08:32:18;;;;;;;62.93;28.80;;;3.60;99.90;;;;;;5052216;28;20644;-70
2022/01/13 08:34:44;;;;;;;61.93;28.93;;;3.60;99.90;;;;;;5048937;28;20181;-70
2022/01/13 08:37:10;;;;;;;69.10;34.53;;;3.60;99.90;;;;;;5052540;28;20735;-71
2022/01/13 08:39:42;;;;;;;60.50;29.47;;;3.60;99.90;;;;;;5052549;28;20292;-70
2022/01/13 08:42:08;;;;;;;62.40;31.30;;;3.70;99.90;;;;;;5046699;28;20170;-70
2022/01/13 08:44:34;;;;;;;58.03;27.53;;;3.50;99.90;;;;;;5033610;28;20247;-71
2022/01/13 08:46:59;;;;;;;60.03;27.87;;;3.40;99.90;;;;;;5032183;28;20637;-70
2022/01/13 08:49:25;;;;;;;57.87;27.17;;;3.50;99.90;;;;;;5031946;28;20743;-70
2022/01/13 08:51:51;;;;;;;57.70;27.70;;;3.60;99.90;;;;;;5035681;28;20264;-71
2022/01/13 08:54:20;;;;;;;60.00;28.27;;;3.70;99.90;;;;;;5045436;28;20178;-71
2022/01/13 08:56:46;;;;;;;55.40;26.93;;;3.70;99.90;;;;;;5031240;28;20619;-69
2022/01/13 08:59:12;;;;;;;53.03;27.10;;;3.60;99.90;;;;;;5031770;28;20565;-70
2022/01/13 09:01:38;;;;;;;56.23;27.50;;;3.70;99.90;;;;;;5034870;28;20273;-69
2022/01/13 09:04:04;;;;;;;52.27;25.73;;;3.70;99.90;;;;;;5044863;28;20185;-70
2022/01/13 09:06:29;;;;;;;48.10;24.60;;;3.80;99.90;;;;;;5042714;28;20203;-71
2022/01/13 09:08:55;;;;;;;44.77;24.80;;;3.90;99.90;;;;;;5052289;28;20177;-71
2022/01/13 09:11:21;;;;;;;49.47;25.40;;;3.90;99.90;;;;;;5037922;28;20185;-70
2022/01/13 09:13:46;;;;;;;52.37;26.40;;;3.90;99.90;;;;;;5032075;28;20544;-70
2022/01/13 09:16:17;;;;;;;53.33;25.10;;;3.80;99.90;;;;;;5031996;28;20181;-69
2022/01/13 09:21:25;;;;;;;44.77;23.80;;;3.40;99.90;;;;;;5034404;28;20627;-71
2022/01/13 09:23:51;;;;;;;49.40;23.90;;;3.40;99.90;;;;;;5051701;28;20238;-70
2022/01/13 09:26:19;;;;;;;46.37;24.50;;;3.40;99.90;;;;;;5051563;28;20311;-70
2022/01/13 09:28:45;;;;;;;50.60;25.40;;;3.40;99.90;;;;;;5051707;28;20173;-71
2022/01/13 09:31:10;;;;;;;51.00;25.33;;;3.50;99.90;;;;;;5044023;28;20181;-70
2022/01/13 09:33:36;;;;;;;56.03;26.27;;;3.50;99.90;;;;;;5040359;28;20189;-71
2022/01/13 09:36:06;;;;;;;52.57;24.73;;;3.60;99.90;;;;;;5050689;28;20260;-71
2022/01/13 09:38:33;;;;;;;54.50;27.27;;;3.90;99.90;;;;;;5052504;28;20193;-71
2022/01/13 09:40:58;;;;;;;52.67;26.33;;;3.90;99.90;;;;;;5055649;28;20211;-70
2022/01/13 09:43:26;;;;;;;54.07;26.93;;;4.20;99.90;;;;;;5053799;28;20169;-71
2022/01/13 09:45:53;;;;;;;52.17;26.60;;;4.30;99.90;;;;;;5055429;28;20240;-71
2022/01/13 09:48:19;;;;;;;53.97;27.50;;;4.30;99.90;;;;;;5044639;28;20235;-72
2022/01/13 09:50:46;;;;;;;51.03;26.57;;;4.30;99.90;;;;;;5035899;28;20197;-71
2022/01/13 09:53:13;;;;;;;51.83;25.93;;;4.30;99.90;;;;;;5037542;28;20277;-71
2022/01/13 09:55:40;;;;;;;53.13;27.03;;;4.30;99.90;;;;;;5047861;28;20268;-71
2022/01/13 09:58:10;;;;;;;50.53;26.30;;;4.20;99.90;;;;;;5051247;28;20267;-71
2022/01/13 10:00:38;;;;;;;58.53;30.23;;;4.40;99.90;;;;;;5039804;28;20181;-71
2022/01/13 10:03:25;;;;;;;61.93;29.03;;;4.80;99.90;;;;;;5055618;28;20212;-71
2022/01/13 10:06:01;;;;;;;51.13;26.63;;;4.90;99.90;;;;;;5047800;28;20582;-71
2022/01/13 10:08:54;;;;;;;54.07;27.17;;;5.00;99.90;;;;;;5054221;28;20173;-70
2022/01/13 10:11:36;;;;;;;55.23;28.63;;;5.30;99.90;;;;;;5035895;28;20269;-71
2022/01/13 10:14:09;;;;;;;53.73;27.87;;;5.40;99.90;;;;;;5045535;28;20247;-71
2022/01/13 10:16:43;;;;;;;52.80;28.13;;;5.50;99.90;;;;;;5048497;28;20715;-71
2022/01/13 10:19:28;;;;;;;50.93;27.07;;;5.60;99.90;;;;;;5044603;28;20213;-72
2022/01/13 10:21:56;;;;;;;54.30;25.17;;;5.80;99.90;;;;;;5055749;28;20177;-72
2022/01/13 10:24:25;;;;;;;53.30;29.83;;;6.10;99.90;;;;;;5055087;28;20165;-71
2022/01/13 10:27:05;;;;;;;48.07;25.30;;;6.10;99.90;;;;;;5054886;28;20308;-71
2022/01/13 10:29:47;;;;;;;39.80;22.77;;;6.30;99.90;;;;;;5036186;28;20209;-72
2022/01/13 10:32:31;;;;;;;41.07;23.20;;;6.80;99.90;;;;;;5034945;28;20162;-71
2022/01/13 10:35:03;;;;;;;38.67;22.20;;;7.50;99.90;;;;;;5052567;28;20205;-72
2022/01/13 10:37:33;;;;;;;37.83;21.87;;;8.00;99.90;;;;;;5051462;28;20240;-72
2022/01/13 10:40:09;;;;;;;36.43;22.03;;;8.60;99.90;;;;;;5042309;28;20241;-71
2022/01/13 10:45:17;;;;;;;31.37;20.83;;;10.40;99.90;;;;;;5038208;28;20210;-71
2022/01/13 10:47:54;;;;;;;30.67;20.27;;;11.20;99.90;;;;;;5043914;28;20181;-72
2022/01/13 10:50:21;;;;;;;33.87;22.40;;;11.80;98.40;;;;;;5040091;28;20193;-72
2022/01/13 10:52:51;;;;;;;33.20;20.77;;;12.20;97.20;;;;;;5041876;28;20178;-72
2022/01/13 10:55:22;;;;;;;31.17;20.87;;;12.50;95.50;;;;;;5054445;28;20650;-71
2022/01/13 10:57:53;;;;;;;35.30;22.57;;;12.30;95.30;;;;;;5054262;28;20319;-71
2022/01/13 11:00:21;;;;;;;34.63;23.77;;;12.50;95.40;;;;;;5054814;28;20220;-72
2022/01/13 11:02:58;;;;;;;36.47;22.73;;;12.40;94.30;;;;;;5055239;28;20246;-72
2022/01/13 11:05:27;;;;;;;34.13;21.37;;;12.70;94.30;;;;;;5054000;28;20196;-70
2022/01/13 11:07:53;;;;;;;31.33;22.43;;;13.10;93.30;;;;;;5054325;28;20487;-71
2022/01/13 11:10:21;;;;;;;31.40;22.30;;;13.10;92.60;;;;;;5054095;28;20178;-72
2022/01/13 11:12:55;;;;;;;33.73;20.90;;;12.90;92.90;;;;;;5053359;28;20307;-71
2022/01/13 11:15:21;;;;;;;32.30;20.13;;;12.80;92.70;;;;;;5054881;28;20218;-70
2022/01/13 11:17:49;;;;;;;40.77;25.97;;;12.80;93.10;;;;;;5053638;28;20181;-70
2022/01/13 11:20:20;;;;;;;28.60;19.13;;;12.60;93.40;;;;;;5054417;28;20291;-71
2022/01/13 11:22:47;;;;;;;30.43;18.73;;;12.20;93.70;;;;;;5037056;28;20181;-72
2022/01/13 11:25:16;;;;;;;27.30;18.10;;;11.80;94.80;;;;;;5035493;28;20225;-72
2022/01/13 11:27:43;;;;;;;24.87;17.40;;;11.70;95.20;;;;;;5037446;28;20303;-72
2022/01/13 11:30:13;;;;;;;28.93;18.80;;;12.10;94.80;;;;;;5037143;28;20227;-72
2022/01/13 11:32:43;;;;;;;28.17;17.13;;;12.40;94.30;;;;;;5034591;28;20178;-72
2022/01/13 11:35:13;;;;;;;27.43;18.00;;;12.80;93.70;;;;;;5047122;28;20577;-72
2022/01/13 11:37:40;;;;;;;26.67;17.57;;;13.40;93.10;;;;;;5044145;28;20268;-71
2022/01/13 11:40:07;;;;;;;28.50;17.70;;;13.60;92.10;;;;;;5050348;28;20604;-72
2022/01/13 11:42:46;;;;;;;30.27;18.30;;;13.70;91.50;;;;;;5045566;28;20253;-73
2022/01/13 11:45:15;;;;;;;26.57;18.73;;;13.70;91.70;;;;;;5055762;28;20210;-72
2022/01/13 11:47:42;;;;;;;29.10;18.70;;;14.10;91.10;;;;;;5055814;28;20205;-72
2022/01/13 11:50:20;;;;;;;28.97;17.60;;;13.90;91.10;;;;;;5057281;28;20188;-72
2022/01/13 11:52:52;;;;;;;28.30;18.87;;;13.90;90.90;;;;;;5073480;28;20180;-72
2022/01/13 11:55:26;;;;;;;23.00;17.90;;;13.80;91.20;;;;;;5073796;28;20183;-71
2022/01/13 11:58:18;;;;;;;30.00;18.37;;;13.30;91.40;;;;;;5072530;28;20650;-71
2022/01/13 12:00:50;;;;;;;28.17;18.43;;;13.10;92.20;;;;;;5033242;28;20709;-71
2022/01/13 12:03:22;;;;;;;28.10;17.80;;;12.20;92.80;;;;;;5046422;28;20671;-71
2022/01/13 12:05:52;;;;;;;22.97;16.37;;;12.50;94.40;;;;;;5033200;28;20174;-70
2022/01/13 12:08:39;;;;;;;21.90;16.63;;;12.70;94.00;;;;;;5031423;28;20181;-70
2022/01/13 12:11:09;;;;;;;26.57;17.57;;;12.50;94.80;;;;;;5032746;28;20173;-71
2022/01/13 12:13:40;;;;;;;24.97;16.23;;;12.60;94.40;;;;;;5036644;28;20210;-71
2022/01/13 12:16:08;;;;;;;22.40;16.23;;;12.50;94.70;;;;;;5034602;28;20177;-71
2022/01/13 12:18:44;;;;;;;22.07;15.97;;;12.50;94.60;;;;;;5041881;28;20223;-71
2022/01/13 12:21:27;;;;;;;25.10;15.87;;;12.20;95.60;;;;;;5051240;28;20173;-71
2022/01/13 12:23:53;;;;;;;26.10;16.17;;;12.40;95.90;;;;;;5053018;28;20213;-70
2022/01/13 12:26:34;;;;;;;25.33;16.07;;;12.10;96.10;;;;;;5040343;28;20218;-70
2022/01/13 12:29:29;;;;;;;21.23;15.23;;;12.30;96.20;;;;;;5044234;28;20186;-71
2022/01/13 12:32:00;;;;;;;24.20;15.97;;;10.80;99.30;;;;;;5039141;28;20182;-70
2022/01/13 12:34:28;;;;;;;24.17;17.07;;;10.70;99.90;;;;;;5045812;28;20192;-71
2022/01/13 12:36:56;;;;;;;25.17;16.90;;;10.60;99.90;;;;;;5052977;28;20640;-72
2022/01/13 12:39:22;;;;;;;27.47;16.97;;;10.40;99.90;;;;;;5052217;28;20219;-71
2022/01/13 12:42:02;;;;;;;24.90;17.50;;;10.60;99.90;;;;;;5050855;28;20301;-71
2022/01/13 12:47:34;;;;;;;26.63;17.67;;;10.80;99.90;;;;;;5030063;28;20189;-71
2022/01/13 12:50:00;;;;;;;28.87;17.10;;;10.70;99.90;;;;;;5029850;28;20202;-72
2022/01/13 12:52:27;;;;;;;31.50;17.27;;;10.10;99.90;;;;;;5031537;28;20234;-71
2022/01/13 12:54:54;;;;;;;28.63;18.50;;;9.90;99.90;;;;;;5032153;28;20190;-71
2022/01/13 12:57:22;;;;;;;31.97;19.10;;;10.00;99.90;;;;;;5050129;28;20173;-71
2022/01/13 12:59:56;;;;;;;32.23;19.77;;;9.70;99.90;;;;;;5049920;28;20236;-72
2022/01/13 13:02:22;;;;;;;33.70;18.93;;;9.50;99.90;;;;;;5046741;28;20751;-71